sensor_id;sensor_type;location;lat;lon;timestamp;P1;durP1;ratioP1;P2;durP2;ratioP2
74636;SDS011;63141;54.616;39.754;2023-05-17T00:01:35;6.30;;;3.63;;
74636;SDS011;63141;54.616;39.754;2023-05-17T00:04:37;6.43;;;3.67;;
74636;SDS011;63141;54.616;39.754;2023-05-17T00:07:41;6.55;;;3.72;;
74636;SDS011;63141;54.616;39.754;2023-05-17T00:10:42;7.97;;;3.50;;
74636;SDS011;63141;54.616;39.754;2023-05-17T00:13:43;7.90;;;3.80;;
74636;SDS011;63141;54.616;39.754;2023-05-17T00:16:45;6.13;;;4.13;;
74636;SDS011;63141;54.616;39.754;2023-05-17T00:19:46;6.25;;;3.80;;
74636;SDS011;63141;54.616;39.754;2023-05-17T00:22:47;5.45;;;3.75;;
74636;SDS011;63141;54.616;39.754;2023-05-17T00:25:49;6.13;;;3.80;;
74636;SDS011;63141;54.616;39.754;2023-05-17T00:28:50;6.13;;;4.00;;
74636;SDS011;63141;54.616;39.754;2023-05-17T00:31:52;6.28;;;3.90;;
74636;SDS011;63141;54.616;39.754;2023-05-17T00:34:53;7.72;;;3.97;;
74636;SDS011;63141;54.616;39.754;2023-05-17T00:37:57;7.28;;;4.07;;
74636;SDS011;63141;54.616;39.754;2023-05-17T00:40:58;6.75;;;3.88;;
74636;SDS011;63141;54.616;39.754;2023-05-17T00:44:00;7.10;;;3.60;;
74636;SDS011;63141;54.616;39.754;2023-05-17T00:47:01;9.10;;;3.72;;
74636;SDS011;63141;54.616;39.754;2023-05-17T00:50:03;6.10;;;3.60;;
74636;SDS011;63141;54.616;39.754;2023-05-17T00:53:06;5.50;;;3.50;;
74636;SDS011;63141;54.616;39.754;2023-05-17T00:56:09;8.68;;;3.90;;
74636;SDS011;63141;54.616;39.754;2023-05-17T00:59:12;7.55;;;3.50;;
74636;SDS011;63141;54.616;39.754;2023-05-17T01:02:17;6.57;;;3.63;;
74636;SDS011;63141;54.616;39.754;2023-05-17T01:05:19;5.72;;;3.78;;
74636;SDS011;63141;54.616;39.754;2023-05-17T01:08:23;7.07;;;4.38;;
74636;SDS011;63141;54.616;39.754;2023-05-17T01:11:31;6.32;;;3.70;;
74636;SDS011;63141;54.616;39.754;2023-05-17T01:28:24;6.47;;;4.00;;
74636;SDS011;63141;54.616;39.754;2023-05-17T01:31:27;6.35;;;3.55;;
74636;SDS011;63141;54.616;39.754;2023-05-17T01:34:34;6.45;;;3.88;;
74636;SDS011;63141;54.616;39.754;2023-05-17T01:37:39;6.72;;;3.53;;
74636;SDS011;63141;54.616;39.754;2023-05-17T01:40:50;7.72;;;4.03;;
74636;SDS011;63141;54.616;39.754;2023-05-17T01:47:20;7.25;;;3.78;;
74636;SDS011;63141;54.616;39.754;2023-05-17T01:50:30;7.22;;;3.63;;
74636;SDS011;63141;54.616;39.754;2023-05-17T01:53:38;7.07;;;3.67;;
74636;SDS011;63141;54.616;39.754;2023-05-17T01:56:43;6.05;;;4.00;;
74636;SDS011;63141;54.616;39.754;2023-05-17T01:59:48;7.38;;;3.45;;
74636;SDS011;63141;54.616;39.754;2023-05-17T02:02:53;6.63;;;3.85;;
74636;SDS011;63141;54.616;39.754;2023-05-17T02:05:59;5.10;;;3.40;;
74636;SDS011;63141;54.616;39.754;2023-05-17T02:09:00;7.82;;;3.83;;
74636;SDS011;63141;54.616;39.754;2023-05-17T02:12:03;7.13;;;3.38;;
74636;SDS011;63141;54.616;39.754;2023-05-17T02:15:04;7.32;;;3.92;;
74636;SDS011;63141;54.616;39.754;2023-05-17T02:18:08;10.40;;;4.18;;
74636;SDS011;63141;54.616;39.754;2023-05-17T02:21:11;5.53;;;3.67;;
74636;SDS011;63141;54.616;39.754;2023-05-17T02:24:13;5.40;;;3.28;;
74636;SDS011;63141;54.616;39.754;2023-05-17T02:27:14;9.57;;;3.85;;
74636;SDS011;63141;54.616;39.754;2023-05-17T02:30:15;9.05;;;4.00;;
74636;SDS011;63141;54.616;39.754;2023-05-17T02:33:17;6.32;;;3.95;;
74636;SDS011;63141;54.616;39.754;2023-05-17T02:36:18;6.28;;;4.10;;
74636;SDS011;63141;54.616;39.754;2023-05-17T02:39:19;5.88;;;3.65;;
74636;SDS011;63141;54.616;39.754;2023-05-17T02:42:21;5.50;;;3.47;;
74636;SDS011;63141;54.616;39.754;2023-05-17T02:45:22;7.30;;;4.25;;
74636;SDS011;63141;54.616;39.754;2023-05-17T02:48:23;7.70;;;3.92;;
74636;SDS011;63141;54.616;39.754;2023-05-17T02:51:25;7.25;;;3.70;;
74636;SDS011;63141;54.616;39.754;2023-05-17T02:54:26;7.05;;;3.78;;
74636;SDS011;63141;54.616;39.754;2023-05-17T02:57:28;6.90;;;4.15;;
74636;SDS011;63141;54.616;39.754;2023-05-17T03:00:31;5.72;;;3.50;;
74636;SDS011;63141;54.616;39.754;2023-05-17T03:03:33;8.77;;;3.85;;
74636;SDS011;63141;54.616;39.754;2023-05-17T03:06:38;6.43;;;3.50;;
74636;SDS011;63141;54.616;39.754;2023-05-17T03:09:40;6.22;;;4.10;;
74636;SDS011;63141;54.616;39.754;2023-05-17T03:12:42;7.55;;;4.03;;
74636;SDS011;63141;54.616;39.754;2023-05-17T03:15:44;8.10;;;3.47;;
74636;SDS011;63141;54.616;39.754;2023-05-17T03:18:45;8.82;;;4.05;;
74636;SDS011;63141;54.616;39.754;2023-05-17T03:21:47;7.55;;;3.47;;
74636;SDS011;63141;54.616;39.754;2023-05-17T03:24:48;8.48;;;3.95;;
74636;SDS011;63141;54.616;39.754;2023-05-17T03:27:50;7.82;;;4.20;;
74636;SDS011;63141;54.616;39.754;2023-05-17T03:30:51;8.68;;;4.50;;
74636;SDS011;63141;54.616;39.754;2023-05-17T03:33:53;7.82;;;3.83;;
74636;SDS011;63141;54.616;39.754;2023-05-17T03:36:55;7.47;;;3.45;;
74636;SDS011;63141;54.616;39.754;2023-05-17T03:39:56;7.65;;;3.72;;
74636;SDS011;63141;54.616;39.754;2023-05-17T03:42:58;8.13;;;4.25;;
74636;SDS011;63141;54.616;39.754;2023-05-17T03:46:01;9.43;;;4.28;;
74636;SDS011;63141;54.616;39.754;2023-05-17T03:49:03;11.32;;;4.78;;
74636;SDS011;63141;54.616;39.754;2023-05-17T03:52:06;13.95;;;4.18;;
74636;SDS011;63141;54.616;39.754;2023-05-17T03:55:08;8.10;;;4.22;;
74636;SDS011;63141;54.616;39.754;2023-05-17T03:58:09;10.15;;;4.60;;
74636;SDS011;63141;54.616;39.754;2023-05-17T04:01:17;10.73;;;5.07;;
74636;SDS011;63141;54.616;39.754;2023-05-17T04:04:21;21.98;;;6.95;;
74636;SDS011;63141;54.616;39.754;2023-05-17T04:07:28;26.27;;;7.60;;
74636;SDS011;63141;54.616;39.754;2023-05-17T04:10:29;27.17;;;8.15;;
74636;SDS011;63141;54.616;39.754;2023-05-17T04:13:30;28.30;;;8.65;;
74636;SDS011;63141;54.616;39.754;2023-05-17T04:16:35;25.13;;;7.78;;
74636;SDS011;63141;54.616;39.754;2023-05-17T04:19:42;25.67;;;8.57;;
74636;SDS011;63141;54.616;39.754;2023-05-17T04:22:43;20.55;;;7.00;;
74636;SDS011;63141;54.616;39.754;2023-05-17T04:25:48;28.42;;;7.35;;
74636;SDS011;63141;54.616;39.754;2023-05-17T04:28:51;20.70;;;6.38;;
74636;SDS011;63141;54.616;39.754;2023-05-17T04:31:52;14.82;;;6.25;;
74636;SDS011;63141;54.616;39.754;2023-05-17T04:34:56;21.67;;;7.32;;
74636;SDS011;63141;54.616;39.754;2023-05-17T04:37:58;16.52;;;5.72;;
74636;SDS011;63141;54.616;39.754;2023-05-17T04:41:03;17.20;;;5.85;;
74636;SDS011;63141;54.616;39.754;2023-05-17T04:44:06;17.58;;;6.78;;
74636;SDS011;63141;54.616;39.754;2023-05-17T04:47:10;14.73;;;5.70;;
74636;SDS011;63141;54.616;39.754;2023-05-17T04:50:24;12.00;;;5.53;;
74636;SDS011;63141;54.616;39.754;2023-05-17T04:53:26;17.90;;;6.10;;
74636;SDS011;63141;54.616;39.754;2023-05-17T04:56:28;19.30;;;5.60;;
74636;SDS011;63141;54.616;39.754;2023-05-17T04:59:30;9.98;;;5.22;;
74636;SDS011;63141;54.616;39.754;2023-05-17T05:02:32;13.48;;;5.55;;
74636;SDS011;63141;54.616;39.754;2023-05-17T05:05:40;12.23;;;4.67;;
74636;SDS011;63141;54.616;39.754;2023-05-17T05:11:46;9.38;;;4.47;;
74636;SDS011;63141;54.616;39.754;2023-05-17T05:14:48;9.82;;;4.80;;
74636;SDS011;63141;54.616;39.754;2023-05-17T05:17:50;9.68;;;4.75;;
74636;SDS011;63141;54.616;39.754;2023-05-17T05:20:55;13.48;;;4.47;;
74636;SDS011;63141;54.616;39.754;2023-05-17T05:23:56;10.45;;;4.68;;
74636;SDS011;63141;54.616;39.754;2023-05-17T05:27:00;13.00;;;5.57;;
74636;SDS011;63141;54.616;39.754;2023-05-17T05:30:05;13.27;;;4.78;;
74636;SDS011;63141;54.616;39.754;2023-05-17T05:33:08;15.93;;;4.97;;
74636;SDS011;63141;54.616;39.754;2023-05-17T05:36:09;13.95;;;5.65;;
74636;SDS011;63141;54.616;39.754;2023-05-17T05:39:11;17.35;;;5.80;;
74636;SDS011;63141;54.616;39.754;2023-05-17T05:42:12;12.73;;;5.07;;
74636;SDS011;63141;54.616;39.754;2023-05-17T05:45:20;17.50;;;5.65;;
74636;SDS011;63141;54.616;39.754;2023-05-17T05:48:32;13.18;;;4.97;;
74636;SDS011;63141;54.616;39.754;2023-05-17T05:51:33;12.15;;;4.90;;
74636;SDS011;63141;54.616;39.754;2023-05-17T05:54:35;13.30;;;5.25;;
74636;SDS011;63141;54.616;39.754;2023-05-17T05:57:36;12.25;;;5.00;;
74636;SDS011;63141;54.616;39.754;2023-05-17T06:00:41;23.02;;;4.88;;
74636;SDS011;63141;54.616;39.754;2023-05-17T06:03:43;17.17;;;5.07;;
74636;SDS011;63141;54.616;39.754;2023-05-17T06:06:46;15.18;;;5.28;;
74636;SDS011;63141;54.616;39.754;2023-05-17T06:09:48;14.13;;;4.82;;
74636;SDS011;63141;54.616;39.754;2023-05-17T06:12:52;12.95;;;4.85;;
74636;SDS011;63141;54.616;39.754;2023-05-17T06:15:56;17.77;;;5.00;;
74636;SDS011;63141;54.616;39.754;2023-05-17T06:18:59;10.63;;;5.00;;
74636;SDS011;63141;54.616;39.754;2023-05-17T06:22:09;16.88;;;4.82;;
74636;SDS011;63141;54.616;39.754;2023-05-17T06:25:14;10.68;;;4.75;;
74636;SDS011;63141;54.616;39.754;2023-05-17T06:28:16;18.27;;;5.15;;
74636;SDS011;63141;54.616;39.754;2023-05-17T06:31:23;17.35;;;5.32;;
74636;SDS011;63141;54.616;39.754;2023-05-17T06:34:28;15.27;;;5.00;;
74636;SDS011;63141;54.616;39.754;2023-05-17T06:37:35;11.88;;;4.57;;
74636;SDS011;63141;54.616;39.754;2023-05-17T06:40:42;10.95;;;4.38;;
74636;SDS011;63141;54.616;39.754;2023-05-17T06:43:46;17.45;;;4.80;;
74636;SDS011;63141;54.616;39.754;2023-05-17T06:46:51;11.05;;;4.80;;
74636;SDS011;63141;54.616;39.754;2023-05-17T06:50:03;12.60;;;4.30;;
74636;SDS011;63141;54.616;39.754;2023-05-17T06:53:08;13.95;;;4.72;;
74636;SDS011;63141;54.616;39.754;2023-05-17T06:56:12;13.65;;;4.78;;
74636;SDS011;63141;54.616;39.754;2023-05-17T06:59:19;11.75;;;4.43;;
74636;SDS011;63141;54.616;39.754;2023-05-17T07:02:30;11.70;;;4.47;;
74636;SDS011;63141;54.616;39.754;2023-05-17T07:05:42;7.57;;;4.03;;
74636;SDS011;63141;54.616;39.754;2023-05-17T07:08:45;9.98;;;3.90;;
74636;SDS011;63141;54.616;39.754;2023-05-17T07:11:55;12.75;;;4.35;;
74636;SDS011;63141;54.616;39.754;2023-05-17T07:18:20;10.25;;;4.28;;
74636;SDS011;63141;54.616;39.754;2023-05-17T07:21:24;7.22;;;4.00;;
74636;SDS011;63141;54.616;39.754;2023-05-17T07:24:35;8.95;;;4.78;;
74636;SDS011;63141;54.616;39.754;2023-05-17T07:27:39;7.32;;;3.92;;
74636;SDS011;63141;54.616;39.754;2023-05-17T07:30:47;10.48;;;4.10;;
74636;SDS011;63141;54.616;39.754;2023-05-17T07:33:51;8.77;;;3.90;;
74636;SDS011;63141;54.616;39.754;2023-05-17T07:36:58;7.97;;;4.20;;
74636;SDS011;63141;54.616;39.754;2023-05-17T07:39:59;8.90;;;3.65;;
74636;SDS011;63141;54.616;39.754;2023-05-17T07:43:05;8.50;;;4.20;;
74636;SDS011;63141;54.616;39.754;2023-05-17T07:46:16;8.35;;;3.90;;
74636;SDS011;63141;54.616;39.754;2023-05-17T07:49:22;11.45;;;3.75;;
74636;SDS011;63141;54.616;39.754;2023-05-17T07:52:26;10.52;;;3.72;;
74636;SDS011;63141;54.616;39.754;2023-05-17T07:55:30;6.60;;;3.63;;
74636;SDS011;63141;54.616;39.754;2023-05-17T07:58:31;7.18;;;3.45;;
74636;SDS011;63141;54.616;39.754;2023-05-17T08:01:38;9.18;;;3.47;;
74636;SDS011;63141;54.616;39.754;2023-05-17T08:04:42;7.60;;;3.72;;
74636;SDS011;63141;54.616;39.754;2023-05-17T08:07:49;10.68;;;4.18;;
74636;SDS011;63141;54.616;39.754;2023-05-17T08:10:52;9.48;;;4.07;;
74636;SDS011;63141;54.616;39.754;2023-05-17T08:13:53;8.57;;;3.70;;
74636;SDS011;63141;54.616;39.754;2023-05-17T08:16:55;6.78;;;3.70;;
74636;SDS011;63141;54.616;39.754;2023-05-17T08:20:02;5.22;;;3.53;;
74636;SDS011;63141;54.616;39.754;2023-05-17T08:23:06;6.63;;;3.90;;
74636;SDS011;63141;54.616;39.754;2023-05-17T08:26:07;8.48;;;3.75;;
74636;SDS011;63141;54.616;39.754;2023-05-17T08:29:08;5.85;;;3.40;;
74636;SDS011;63141;54.616;39.754;2023-05-17T08:32:10;8.40;;;3.40;;
74636;SDS011;63141;54.616;39.754;2023-05-17T08:35:26;8.90;;;3.30;;
74636;SDS011;63141;54.616;39.754;2023-05-17T08:38:28;6.78;;;3.63;;
74636;SDS011;63141;54.616;39.754;2023-05-17T08:41:35;6.22;;;3.28;;
74636;SDS011;63141;54.616;39.754;2023-05-17T08:44:52;5.38;;;3.50;;
74636;SDS011;63141;54.616;39.754;2023-05-17T08:47:54;6.55;;;3.20;;
74636;SDS011;63141;54.616;39.754;2023-05-17T08:51:02;7.13;;;3.20;;
74636;SDS011;63141;54.616;39.754;2023-05-17T08:54:12;9.52;;;3.17;;
74636;SDS011;63141;54.616;39.754;2023-05-17T08:57:19;8.40;;;3.28;;
74636;SDS011;63141;54.616;39.754;2023-05-17T09:00:33;8.23;;;3.50;;
74636;SDS011;63141;54.616;39.754;2023-05-17T09:03:39;6.55;;;3.30;;
74636;SDS011;63141;54.616;39.754;2023-05-17T09:07:04;6.45;;;3.40;;
74636;SDS011;63141;54.616;39.754;2023-05-17T09:10:06;7.72;;;3.50;;
74636;SDS011;63141;54.616;39.754;2023-05-17T09:13:10;6.80;;;3.50;;
74636;SDS011;63141;54.616;39.754;2023-05-17T09:16:12;5.18;;;3.25;;
74636;SDS011;63141;54.616;39.754;2023-05-17T09:19:17;10.13;;;3.60;;
74636;SDS011;63141;54.616;39.754;2023-05-17T09:22:21;6.70;;;3.45;;
74636;SDS011;63141;54.616;39.754;2023-05-17T09:25:23;6.38;;;3.28;;
74636;SDS011;63141;54.616;39.754;2023-05-17T09:28:35;7.80;;;3.20;;
74636;SDS011;63141;54.616;39.754;2023-05-17T09:31:45;8.10;;;3.03;;
74636;SDS011;63141;54.616;39.754;2023-05-17T09:34:49;6.10;;;3.28;;
74636;SDS011;63141;54.616;39.754;2023-05-17T09:37:51;5.55;;;3.08;;
74636;SDS011;63141;54.616;39.754;2023-05-17T09:40:59;6.97;;;3.60;;
74636;SDS011;63141;54.616;39.754;2023-05-17T09:44:06;6.03;;;3.53;;
74636;SDS011;63141;54.616;39.754;2023-05-17T09:47:23;4.72;;;2.75;;
74636;SDS011;63141;54.616;39.754;2023-05-17T09:54:00;4.82;;;3.00;;
74636;SDS011;63141;54.616;39.754;2023-05-17T09:57:05;8.48;;;3.25;;
74636;SDS011;63141;54.616;39.754;2023-05-17T10:00:12;5.13;;;2.80;;
74636;SDS011;63141;54.616;39.754;2023-05-17T10:03:29;6.00;;;3.42;;
74636;SDS011;63141;54.616;39.754;2023-05-17T10:06:39;7.20;;;3.50;;
74636;SDS011;63141;54.616;39.754;2023-05-17T10:09:47;4.60;;;3.08;;
74636;SDS011;63141;54.616;39.754;2023-05-17T10:12:53;4.45;;;3.08;;
74636;SDS011;63141;54.616;39.754;2023-05-17T10:15:57;4.97;;;2.97;;
74636;SDS011;63141;54.616;39.754;2023-05-17T10:19:10;5.70;;;3.03;;
74636;SDS011;63141;54.616;39.754;2023-05-17T10:22:20;6.28;;;3.05;;
74636;SDS011;63141;54.616;39.754;2023-05-17T10:25:26;6.68;;;3.20;;
74636;SDS011;63141;54.616;39.754;2023-05-17T10:28:31;5.03;;;3.08;;
74636;SDS011;63141;54.616;39.754;2023-05-17T10:31:34;7.97;;;3.67;;
74636;SDS011;63141;54.616;39.754;2023-05-17T10:34:47;9.68;;;3.70;;
74636;SDS011;63141;54.616;39.754;2023-05-17T10:37:50;13.73;;;3.65;;
74636;SDS011;63141;54.616;39.754;2023-05-17T10:40:54;6.78;;;3.97;;
74636;SDS011;63141;54.616;39.754;2023-05-17T10:44:00;8.15;;;4.07;;
74636;SDS011;63141;54.616;39.754;2023-05-17T10:47:04;10.25;;;3.97;;
74636;SDS011;63141;54.616;39.754;2023-05-17T10:50:11;9.27;;;4.93;;
74636;SDS011;63141;54.616;39.754;2023-05-17T10:53:19;14.35;;;4.60;;
74636;SDS011;63141;54.616;39.754;2023-05-17T10:56:26;6.72;;;3.95;;
74636;SDS011;63141;54.616;39.754;2023-05-17T10:59:30;8.68;;;4.30;;
74636;SDS011;63141;54.616;39.754;2023-05-17T11:02:38;8.35;;;4.57;;
74636;SDS011;63141;54.616;39.754;2023-05-17T11:06:12;11.32;;;4.75;;
74636;SDS011;63141;54.616;39.754;2023-05-17T11:09:26;8.55;;;5.22;;
74636;SDS011;63141;54.616;39.754;2023-05-17T11:12:33;10.13;;;5.32;;
74636;SDS011;63141;54.616;39.754;2023-05-17T11:15:37;10.23;;;5.15;;
74636;SDS011;63141;54.616;39.754;2023-05-17T11:18:45;12.68;;;5.38;;
74636;SDS011;63141;54.616;39.754;2023-05-17T11:21:58;10.52;;;5.60;;
74636;SDS011;63141;54.616;39.754;2023-05-17T11:25:13;13.65;;;5.97;;
74636;SDS011;63141;54.616;39.754;2023-05-17T11:28:17;11.23;;;5.70;;
74636;SDS011;63141;54.616;39.754;2023-05-17T11:31:28;16.83;;;6.30;;
74636;SDS011;63141;54.616;39.754;2023-05-17T11:34:33;10.77;;;5.97;;
74636;SDS011;63141;54.616;39.754;2023-05-17T11:37:35;10.45;;;6.32;;
74636;SDS011;63141;54.616;39.754;2023-05-17T11:40:39;11.55;;;5.63;;
74636;SDS011;63141;54.616;39.754;2023-05-17T11:43:47;10.23;;;6.03;;
74636;SDS011;63141;54.616;39.754;2023-05-17T11:47:05;9.70;;;5.80;;
74636;SDS011;63141;54.616;39.754;2023-05-17T11:50:27;12.40;;;6.22;;
74636;SDS011;63141;54.616;39.754;2023-05-17T11:56:54;10.23;;;5.55;;
74636;SDS011;63141;54.616;39.754;2023-05-17T12:00:00;9.13;;;6.10;;
74636;SDS011;63141;54.616;39.754;2023-05-17T12:03:17;10.32;;;5.80;;
74636;SDS011;63141;54.616;39.754;2023-05-17T12:06:33;10.40;;;6.60;;
74636;SDS011;63141;54.616;39.754;2023-05-17T12:09:39;17.48;;;6.88;;
74636;SDS011;63141;54.616;39.754;2023-05-17T12:12:46;18.38;;;7.47;;
74636;SDS011;63141;54.616;39.754;2023-05-17T12:15:52;11.38;;;6.28;;
74636;SDS011;63141;54.616;39.754;2023-05-17T12:19:21;15.10;;;6.32;;
74636;SDS011;63141;54.616;39.754;2023-05-17T12:22:24;10.35;;;6.05;;
74636;SDS011;63141;54.616;39.754;2023-05-17T12:25:35;10.85;;;6.55;;
74636;SDS011;63141;54.616;39.754;2023-05-17T12:32:02;12.45;;;6.50;;
74636;SDS011;63141;54.616;39.754;2023-05-17T12:35:05;10.45;;;5.95;;
74636;SDS011;63141;54.616;39.754;2023-05-17T12:38:12;15.15;;;6.97;;
74636;SDS011;63141;54.616;39.754;2023-05-17T12:41:16;13.27;;;6.40;;
74636;SDS011;63141;54.616;39.754;2023-05-17T12:44:24;10.57;;;5.97;;
74636;SDS011;63141;54.616;39.754;2023-05-17T12:47:38;22.50;;;6.60;;
74636;SDS011;63141;54.616;39.754;2023-05-17T12:50:41;15.32;;;6.57;;
74636;SDS011;63141;54.616;39.754;2023-05-17T12:53:56;25.23;;;7.80;;
74636;SDS011;63141;54.616;39.754;2023-05-17T12:57:08;19.92;;;7.05;;
74636;SDS011;63141;54.616;39.754;2023-05-17T13:00:25;17.90;;;7.80;;
74636;SDS011;63141;54.616;39.754;2023-05-17T13:03:35;19.00;;;7.88;;
74636;SDS011;63141;54.616;39.754;2023-05-17T13:06:53;16.98;;;7.13;;
74636;SDS011;63141;54.616;39.754;2023-05-17T13:10:05;15.00;;;6.97;;
74636;SDS011;63141;54.616;39.754;2023-05-17T13:13:25;18.70;;;6.82;;
74636;SDS011;63141;54.616;39.754;2023-05-17T13:16:43;14.55;;;6.82;;
74636;SDS011;63141;54.616;39.754;2023-05-17T13:19:45;13.95;;;6.70;;
74636;SDS011;63141;54.616;39.754;2023-05-17T13:22:52;19.10;;;6.65;;
74636;SDS011;63141;54.616;39.754;2023-05-17T13:26:05;13.93;;;6.55;;
74636;SDS011;63141;54.616;39.754;2023-05-17T13:29:09;16.73;;;8.00;;
74636;SDS011;63141;54.616;39.754;2023-05-17T13:32:22;19.85;;;6.78;;
74636;SDS011;63141;54.616;39.754;2023-05-17T13:35:38;12.50;;;7.13;;
74636;SDS011;63141;54.616;39.754;2023-05-17T13:38:49;16.98;;;6.97;;
74636;SDS011;63141;54.616;39.754;2023-05-17T13:41:56;11.55;;;6.15;;
74636;SDS011;63141;54.616;39.754;2023-05-17T13:44:58;12.55;;;6.13;;
74636;SDS011;63141;54.616;39.754;2023-05-17T13:48:08;13.38;;;6.32;;
74636;SDS011;63141;54.616;39.754;2023-05-17T13:51:12;12.88;;;6.13;;
74636;SDS011;63141;54.616;39.754;2023-05-17T13:54:22;8.40;;;5.30;;
74636;SDS011;63141;54.616;39.754;2023-05-17T13:57:26;8.13;;;5.55;;
74636;SDS011;63141;54.616;39.754;2023-05-17T14:00:54;9.00;;;5.80;;
74636;SDS011;63141;54.616;39.754;2023-05-17T14:03:56;10.60;;;5.57;;
74636;SDS011;63141;54.616;39.754;2023-05-17T14:07:11;8.80;;;5.78;;
74636;SDS011;63141;54.616;39.754;2023-05-17T14:10:16;15.82;;;5.68;;
74636;SDS011;63141;54.616;39.754;2023-05-17T14:13:23;13.93;;;5.68;;
74636;SDS011;63141;54.616;39.754;2023-05-17T14:16:28;11.88;;;5.57;;
74636;SDS011;63141;54.616;39.754;2023-05-17T14:19:45;11.40;;;5.63;;
74636;SDS011;63141;54.616;39.754;2023-05-17T14:22:52;12.60;;;5.63;;
74636;SDS011;63141;54.616;39.754;2023-05-17T14:25:56;13.25;;;5.72;;
74636;SDS011;63141;54.616;39.754;2023-05-17T14:29:10;9.32;;;5.38;;
74636;SDS011;63141;54.616;39.754;2023-05-17T14:32:35;11.43;;;6.15;;
74636;SDS011;63141;54.616;39.754;2023-05-17T14:35:38;9.98;;;5.80;;
74636;SDS011;63141;54.616;39.754;2023-05-17T14:38:40;7.68;;;5.07;;
74636;SDS011;63141;54.616;39.754;2023-05-17T14:41:47;8.95;;;5.35;;
74636;SDS011;63141;54.616;39.754;2023-05-17T14:45:04;7.85;;;5.18;;
74636;SDS011;63141;54.616;39.754;2023-05-17T14:48:20;7.15;;;5.20;;
74636;SDS011;63141;54.616;39.754;2023-05-17T14:51:37;10.93;;;5.47;;
74636;SDS011;63141;54.616;39.754;2023-05-17T14:54:56;8.95;;;4.93;;
74636;SDS011;63141;54.616;39.754;2023-05-17T14:57:58;7.35;;;5.38;;
74636;SDS011;63141;54.616;39.754;2023-05-17T15:01:14;12.77;;;5.35;;
74636;SDS011;63141;54.616;39.754;2023-05-17T15:04:24;12.85;;;6.00;;
74636;SDS011;63141;54.616;39.754;2023-05-17T15:07:28;9.50;;;5.43;;
74636;SDS011;63141;54.616;39.754;2023-05-17T15:10:36;13.68;;;5.03;;
74636;SDS011;63141;54.616;39.754;2023-05-17T15:13:38;8.98;;;5.60;;
74636;SDS011;63141;54.616;39.754;2023-05-17T15:16:42;11.82;;;5.63;;
74636;SDS011;63141;54.616;39.754;2023-05-17T15:19:50;12.82;;;5.63;;
74636;SDS011;63141;54.616;39.754;2023-05-17T15:23:03;9.45;;;5.80;;
74636;SDS011;63141;54.616;39.754;2023-05-17T15:26:37;11.25;;;5.82;;
74636;SDS011;63141;54.616;39.754;2023-05-17T15:30:00;12.57;;;5.45;;
74636;SDS011;63141;54.616;39.754;2023-05-17T15:33:16;10.02;;;5.63;;
74636;SDS011;63141;54.616;39.754;2023-05-17T15:36:32;7.93;;;5.30;;
74636;SDS011;63141;54.616;39.754;2023-05-17T15:39:34;8.18;;;5.15;;
74636;SDS011;63141;54.616;39.754;2023-05-17T15:42:59;7.85;;;5.32;;
74636;SDS011;63141;54.616;39.754;2023-05-17T15:46:12;10.02;;;5.63;;
74636;SDS011;63141;54.616;39.754;2023-05-17T15:49:32;7.47;;;5.05;;
74636;SDS011;63141;54.616;39.754;2023-05-17T15:52:36;9.15;;;5.20;;
74636;SDS011;63141;54.616;39.754;2023-05-17T15:55:46;9.68;;;5.28;;
74636;SDS011;63141;54.616;39.754;2023-05-17T15:58:59;8.70;;;5.03;;
74636;SDS011;63141;54.616;39.754;2023-05-17T16:02:12;10.55;;;5.25;;
74636;SDS011;63141;54.616;39.754;2023-05-17T16:05:19;11.63;;;5.63;;
74636;SDS011;63141;54.616;39.754;2023-05-17T16:08:41;10.10;;;5.45;;
74636;SDS011;63141;54.616;39.754;2023-05-17T16:11:55;10.25;;;5.20;;
74636;SDS011;63141;54.616;39.754;2023-05-17T16:15:05;8.65;;;5.18;;
74636;SDS011;63141;54.616;39.754;2023-05-17T16:18:16;8.77;;;5.30;;
74636;SDS011;63141;54.616;39.754;2023-05-17T16:21:32;8.45;;;5.35;;
74636;SDS011;63141;54.616;39.754;2023-05-17T16:24:51;11.13;;;6.15;;
74636;SDS011;63141;54.616;39.754;2023-05-17T16:27:59;8.85;;;5.43;;
74636;SDS011;63141;54.616;39.754;2023-05-17T16:31:18;11.57;;;6.28;;
74636;SDS011;63141;54.616;39.754;2023-05-17T16:34:46;9.07;;;5.60;;
74636;SDS011;63141;54.616;39.754;2023-05-17T16:37:53;10.00;;;5.78;;
74636;SDS011;63141;54.616;39.754;2023-05-17T16:41:25;10.50;;;5.47;;
74636;SDS011;63141;54.616;39.754;2023-05-17T16:44:39;8.35;;;5.85;;
74636;SDS011;63141;54.616;39.754;2023-05-17T16:47:45;11.07;;;6.35;;
74636;SDS011;63141;54.616;39.754;2023-05-17T16:50:56;10.35;;;6.05;;
74636;SDS011;63141;54.616;39.754;2023-05-17T16:54:04;10.40;;;6.07;;
74636;SDS011;63141;54.616;39.754;2023-05-17T16:57:23;13.02;;;5.93;;
74636;SDS011;63141;54.616;39.754;2023-05-17T17:00:46;11.05;;;6.63;;
74636;SDS011;63141;54.616;39.754;2023-05-17T17:03:52;10.80;;;6.43;;
74636;SDS011;63141;54.616;39.754;2023-05-17T17:07:08;17.48;;;6.20;;
74636;SDS011;63141;54.616;39.754;2023-05-17T17:10:28;16.75;;;7.28;;
74636;SDS011;63141;54.616;39.754;2023-05-17T17:13:38;14.50;;;8.00;;
74636;SDS011;63141;54.616;39.754;2023-05-17T17:16:46;23.15;;;8.80;;
74636;SDS011;63141;54.616;39.754;2023-05-17T17:19:59;22.88;;;9.95;;
74636;SDS011;63141;54.616;39.754;2023-05-17T17:23:08;15.48;;;10.38;;
74636;SDS011;63141;54.616;39.754;2023-05-17T17:26:18;22.25;;;10.77;;
74636;SDS011;63141;54.616;39.754;2023-05-17T17:29:37;18.90;;;10.77;;
74636;SDS011;63141;54.616;39.754;2023-05-17T17:32:47;19.33;;;9.52;;
74636;SDS011;63141;54.616;39.754;2023-05-17T17:35:54;19.80;;;9.02;;
74636;SDS011;63141;54.616;39.754;2023-05-17T17:39:01;17.27;;;8.48;;
74636;SDS011;63141;54.616;39.754;2023-05-17T17:42:08;17.52;;;10.93;;
74636;SDS011;63141;54.616;39.754;2023-05-17T17:45:50;77.63;;;50.42;;
74636;SDS011;63141;54.616;39.754;2023-05-17T17:49:18;33.00;;;15.27;;
74636;SDS011;63141;54.616;39.754;2023-05-17T17:52:22;75.13;;;40.92;;
74636;SDS011;63141;54.616;39.754;2023-05-17T17:55:30;35.88;;;19.67;;
74636;SDS011;63141;54.616;39.754;2023-05-17T17:58:43;29.80;;;15.77;;
74636;SDS011;63141;54.616;39.754;2023-05-17T18:01:53;20.60;;;11.35;;
74636;SDS011;63141;54.616;39.754;2023-05-17T18:04:54;19.05;;;10.27;;
74636;SDS011;63141;54.616;39.754;2023-05-17T18:08:13;27.45;;;11.25;;
74636;SDS011;63141;54.616;39.754;2023-05-17T18:11:17;43.13;;;23.40;;
74636;SDS011;63141;54.616;39.754;2023-05-17T18:14:31;280.77;;;209.32;;
74636;SDS011;63141;54.616;39.754;2023-05-17T18:17:47;79.32;;;41.00;;
74636;SDS011;63141;54.616;39.754;2023-05-17T18:21:13;56.72;;;26.27;;
74636;SDS011;63141;54.616;39.754;2023-05-17T18:24:29;32.63;;;13.75;;
74636;SDS011;63141;54.616;39.754;2023-05-17T18:27:36;23.33;;;11.18;;
74636;SDS011;63141;54.616;39.754;2023-05-17T18:30:47;62.38;;;30.05;;
74636;SDS011;63141;54.616;39.754;2023-05-17T18:34:03;223.67;;;116.57;;
74636;SDS011;63141;54.616;39.754;2023-05-17T18:37:28;706.15;;;582.13;;
74636;SDS011;63141;54.616;39.754;2023-05-17T18:40:53;976.75;;;717.90;;
74636;SDS011;63141;54.616;39.754;2023-05-17T18:44:03;96.72;;;39.60;;
74636;SDS011;63141;54.616;39.754;2023-05-17T18:47:16;66.05;;;31.08;;
74636;SDS011;63141;54.616;39.754;2023-05-17T18:50:33;35.78;;;19.35;;
74636;SDS011;63141;54.616;39.754;2023-05-17T18:53:51;44.88;;;23.40;;
74636;SDS011;63141;54.616;39.754;2023-05-17T18:57:02;46.80;;;22.40;;